createdAt,value
2017-02-14T00:00:06.457Z,0
2017-02-14T00:01:17.933Z,0
2017-02-14T00:02:29.365Z,0
2017-02-14T00:03:40.815Z,0
2017-02-14T00:04:52.263Z,0
2017-02-14T00:06:03.709Z,0
2017-02-14T00:07:15.350Z,0
2017-02-14T00:08:26.780Z,0
2017-02-14T00:09:38.465Z,0
2017-02-14T00:10:49.904Z,0
2017-02-14T00:12:01.341Z,0
2017-02-14T00:13:12.828Z,0
2017-02-14T00:14:24.273Z,0
2017-02-14T00:15:35.705Z,0
2017-02-14T00:16:47.140Z,0
2017-02-14T00:17:58.585Z,0
2017-02-14T00:19:10.015Z,0
2017-02-14T00:20:21.722Z,0
2017-02-14T00:21:33.170Z,0
2017-02-14T00:22:44.620Z,0
2017-02-14T00:23:56.057Z,0
2017-02-14T00:25:07.507Z,0
2017-02-14T00:26:18.937Z,0
2017-02-14T00:27:30.385Z,0
2017-02-14T00:28:41.838Z,0
2017-02-14T00:29:53.284Z,0
2017-02-14T00:31:04.775Z,0
2017-02-14T00:32:16.220Z,0
2017-02-14T00:33:27.692Z,0
2017-02-14T00:34:39.130Z,0
2017-02-14T00:35:50.584Z,0
2017-02-14T00:37:02.035Z,0
2017-02-14T00:38:13.487Z,0
2017-02-14T00:39:24.939Z,0
2017-02-14T00:40:36.378Z,0
2017-02-14T00:41:47.831Z,0
2017-02-14T00:42:59.261Z,0
2017-02-14T00:44:10.707Z,0
2017-02-14T00:45:22.132Z,0
2017-02-14T00:46:33.574Z,0
2017-02-14T00:47:45.002Z,0
2017-02-14T00:48:56.433Z,0
2017-02-14T00:50:07.873Z,0
2017-02-14T00:51:19.304Z,0
2017-02-14T00:52:30.791Z,0
2017-02-14T00:53:42.421Z,0
2017-02-14T00:54:53.843Z,0
2017-02-14T00:56:05.270Z,0
2017-02-14T00:57:16.690Z,0
2017-02-14T00:58:28.185Z,0
2017-02-14T00:59:39.613Z,0
2017-02-14T01:00:51.265Z,0
2017-02-14T01:02:02.915Z,0
2017-02-14T01:03:14.601Z,0
2017-02-14T01:04:26.051Z,0
2017-02-14T01:05:37.493Z,0
2017-02-14T01:06:49.119Z,0
2017-02-14T01:08:00.586Z,0
2017-02-14T01:09:12.226Z,0
2017-02-14T01:10:23.662Z,0
2017-02-14T01:11:35.104Z,0
2017-02-14T01:12:46.551Z,0
2017-02-14T01:13:58.044Z,0
2017-02-14T01:15:09.692Z,0
2017-02-14T01:16:21.141Z,0
2017-02-14T01:17:32.802Z,0
2017-02-14T01:18:44.420Z,0
2017-02-14T01:19:55.842Z,0
2017-02-14T01:21:07.287Z,0
2017-02-14T01:22:18.712Z,0
2017-02-14T01:23:30.156Z,0
2017-02-14T01:24:41.844Z,0
2017-02-14T01:25:53.278Z,0
2017-02-14T01:27:04.718Z,0
2017-02-14T01:28:16.158Z,0
2017-02-14T01:29:27.583Z,0
2017-02-14T01:30:39.037Z,0
2017-02-14T01:31:50.482Z,0
2017-02-14T01:33:02.102Z,0
2017-02-14T01:34:13.533Z,0
2017-02-14T01:35:25.023Z,0
2017-02-14T01:36:36.478Z,0
2017-02-14T01:37:47.914Z,0
2017-02-14T01:38:59.350Z,0
2017-02-14T01:40:10.803Z,0
2017-02-14T01:41:22.244Z,0
2017-02-14T01:42:33.697Z,0
2017-02-14T01:43:45.137Z,0
2017-02-14T01:44:56.796Z,0
2017-02-14T01:46:08.281Z,0
2017-02-14T01:47:19.951Z,0
2017-02-14T01:48:31.376Z,0
2017-02-14T01:49:42.805Z,0
2017-02-14T01:50:54.228Z,0
2017-02-14T01:52:05.659Z,0
2017-02-14T01:53:17.109Z,0
2017-02-14T01:54:28.541Z,0
2017-02-14T01:55:39.980Z,0
2017-02-14T01:56:51.493Z,0
2017-02-14T01:58:02.943Z,0
2017-02-14T01:59:14.402Z,0
2017-02-14T02:00:26.073Z,0
2017-02-14T02:01:37.545Z,0
2017-02-14T02:02:48.985Z,0
2017-02-14T02:04:00.431Z,0
2017-02-14T02:05:11.869Z,0
2017-02-14T02:06:23.517Z,0
2017-02-14T02:07:35.000Z,0
2017-02-14T02:08:46.431Z,0
2017-02-14T02:09:57.882Z,0
2017-02-14T02:11:09.330Z,0
2017-02-14T02:12:20.803Z,0
2017-02-14T02:13:32.238Z,0
2017-02-14T02:14:43.702Z,0
2017-02-14T02:15:55.346Z,0
2017-02-14T02:17:06.777Z,0
2017-02-14T02:18:18.421Z,0
2017-02-14T02:19:30.053Z,0
2017-02-14T02:20:41.473Z,0
2017-02-14T02:21:52.908Z,0
2017-02-14T02:23:04.543Z,0
2017-02-14T02:24:16.022Z,0
2017-02-14T02:25:27.481Z,0
2017-02-14T02:26:38.940Z,0
2017-02-14T02:27:50.386Z,0
2017-02-14T02:29:01.890Z,0
2017-02-14T02:30:13.329Z,0
2017-02-14T02:31:24.960Z,0
2017-02-14T02:32:36.391Z,0
2017-02-14T02:33:47.822Z,0
2017-02-14T02:34:59.321Z,0
2017-02-14T02:36:10.963Z,0
2017-02-14T02:37:22.606Z,0
2017-02-14T02:38:34.051Z,0
2017-02-14T02:39:45.537Z,0
2017-02-14T02:40:56.974Z,0
2017-02-14T02:42:08.413Z,0
2017-02-14T02:43:19.859Z,0
2017-02-14T02:44:31.288Z,0
2017-02-14T02:45:42.721Z,0
2017-02-14T02:46:54.341Z,0
2017-02-14T02:48:05.803Z,0
2017-02-14T02:49:17.241Z,0
2017-02-14T02:50:28.729Z,0
2017-02-14T02:51:40.181Z,0
2017-02-14T02:52:51.609Z,0
2017-02-14T02:54:03.237Z,0
2017-02-14T02:55:14.681Z,0
2017-02-14T02:56:26.118Z,0
2017-02-14T02:57:37.553Z,0
2017-02-14T02:58:49.189Z,0
2017-02-14T03:00:00.827Z,0
2017-02-14T03:01:12.315Z,0
2017-02-14T03:02:23.733Z,0
2017-02-14T03:03:35.213Z,0
2017-02-14T03:04:46.644Z,0
2017-02-14T03:05:58.109Z,0
2017-02-14T03:07:09.761Z,0
2017-02-14T03:08:21.417Z,0
2017-02-14T03:09:33.061Z,0
2017-02-14T03:10:44.495Z,0
2017-02-14T03:11:56.003Z,0
2017-02-14T03:13:07.452Z,0
2017-02-14T03:14:18.888Z,0
2017-02-14T03:15:30.327Z,0
2017-02-14T03:16:41.752Z,0
2017-02-14T03:17:53.180Z,0
2017-02-14T03:19:04.607Z,0
2017-02-14T03:20:16.037Z,0
2017-02-14T03:21:27.461Z,0
2017-02-14T03:22:39.140Z,0
2017-02-14T03:23:50.787Z,0
2017-02-14T03:25:02.234Z,0
2017-02-14T03:26:13.675Z,0
2017-02-14T03:27:25.107Z,0
2017-02-14T03:28:36.546Z,0
2017-02-14T03:29:47.987Z,0
2017-02-14T03:30:59.430Z,0
2017-02-14T03:32:10.860Z,0
2017-02-14T03:33:22.358Z,0
2017-02-14T03:34:33.793Z,0
2017-02-14T03:35:45.239Z,0
2017-02-14T03:36:56.663Z,0
2017-02-14T03:38:08.325Z,0
2017-02-14T03:39:19.948Z,0
2017-02-14T03:40:31.360Z,0
2017-02-14T03:41:42.791Z,0
2017-02-14T03:42:54.438Z,0
2017-02-14T03:44:06.122Z,0
2017-02-14T03:45:17.570Z,0
2017-02-14T03:46:28.993Z,0
2017-02-14T03:47:40.645Z,0
2017-02-14T03:48:52.076Z,0
2017-02-14T03:50:03.572Z,0
2017-02-14T03:51:15.001Z,0
2017-02-14T03:52:26.440Z,0
2017-02-14T03:53:37.890Z,0
2017-02-14T03:54:49.380Z,0
2017-02-14T03:56:00.815Z,0
2017-02-14T03:57:12.259Z,0
2017-02-14T03:58:23.697Z,0
2017-02-14T03:59:35.330Z,0
2017-02-14T04:00:46.765Z,0
2017-02-14T04:01:58.409Z,0
2017-02-14T04:03:10.043Z,0
2017-02-14T04:04:21.477Z,0
2017-02-14T04:05:32.946Z,0
2017-02-14T04:06:44.385Z,0
2017-02-14T04:07:56.009Z,0
2017-02-14T04:09:07.507Z,0
2017-02-14T04:10:18.930Z,0
2017-02-14T04:11:30.356Z,0
2017-02-14T04:12:41.786Z,0
2017-02-14T04:13:53.224Z,0
2017-02-14T04:15:04.670Z,0
2017-02-14T04:16:16.152Z,0
2017-02-14T04:17:27.602Z,0
2017-02-14T04:18:39.034Z,0
2017-02-14T04:19:50.661Z,0
2017-02-14T04:21:02.084Z,0
2017-02-14T04:22:13.565Z,0
2017-02-14T04:23:24.994Z,0
2017-02-14T04:24:36.409Z,0
2017-02-14T04:25:48.035Z,0
2017-02-14T04:26:59.527Z,0
2017-02-14T04:28:11.201Z,0
2017-02-14T04:29:22.835Z,0
2017-02-14T04:30:34.266Z,0
2017-02-14T04:31:45.889Z,0
2017-02-14T04:32:57.548Z,0
2017-02-14T04:34:09.004Z,0
2017-02-14T04:35:20.449Z,0
2017-02-14T04:36:31.865Z,0
2017-02-14T04:37:43.348Z,0
2017-02-14T04:38:54.795Z,0
2017-02-14T04:40:06.417Z,0
2017-02-14T04:41:17.877Z,0
2017-02-14T04:42:29.327Z,0
2017-02-14T04:43:40.744Z,0
2017-02-14T04:44:52.183Z,0
2017-02-14T04:46:03.655Z,0
2017-02-14T04:47:15.098Z,0
2017-02-14T04:48:26.584Z,0
2017-02-14T04:49:38.036Z,0
2017-02-14T04:50:49.489Z,0
2017-02-14T04:52:00.925Z,0
2017-02-14T04:53:12.373Z,0
2017-02-14T04:54:23.818Z,0
2017-02-14T04:55:35.253Z,0
2017-02-14T04:56:46.892Z,0
2017-02-14T04:57:58.334Z,0
2017-02-14T04:59:09.827Z,0
2017-02-14T05:00:21.282Z,0
2017-02-14T05:01:32.715Z,0
2017-02-14T05:02:44.179Z,0
2017-02-14T05:03:55.600Z,0
2017-02-14T05:05:07.245Z,0
2017-02-14T05:06:18.692Z,0
2017-02-14T05:07:30.121Z,0
2017-02-14T05:08:41.553Z,0
2017-02-14T05:09:53.036Z,0
2017-02-14T05:11:04.483Z,0
2017-02-14T05:12:16.134Z,0
2017-02-14T05:13:27.587Z,0
2017-02-14T05:14:39.015Z,0
2017-02-14T05:15:50.453Z,0
2017-02-14T05:17:01.915Z,0
2017-02-14T05:18:13.357Z,0
2017-02-14T05:19:24.794Z,0
2017-02-14T05:20:36.230Z,0
2017-02-14T05:21:48.062Z,0
2017-02-14T05:22:59.684Z,0
2017-02-14T05:24:11.109Z,0
2017-02-14T05:25:22.542Z,0
2017-02-14T05:26:34.033Z,0
2017-02-14T05:27:45.491Z,0
2017-02-14T05:28:57.147Z,0
2017-02-14T05:30:08.989Z,0
2017-02-14T05:31:20.626Z,0
2017-02-14T05:32:32.116Z,0
2017-02-14T05:33:43.536Z,0
2017-02-14T05:34:54.974Z,0
2017-02-14T05:36:06.411Z,0
2017-02-14T05:37:17.833Z,0
2017-02-14T05:38:29.269Z,0
2017-02-14T05:39:40.693Z,0
2017-02-14T05:40:52.124Z,0
2017-02-14T05:42:03.563Z,0
2017-02-14T05:43:15.056Z,0
2017-02-14T05:44:26.704Z,0
2017-02-14T05:45:38.135Z,0
2017-02-14T05:46:49.783Z,0
2017-02-14T05:48:01.215Z,0
2017-02-14T05:49:12.657Z,0
2017-02-14T05:50:24.290Z,0
2017-02-14T05:51:35.931Z,0
2017-02-14T05:52:47.387Z,0
2017-02-14T05:53:58.873Z,0
2017-02-14T05:55:10.328Z,0
2017-02-14T05:56:21.992Z,0
2017-02-14T05:57:33.426Z,0
2017-02-14T05:58:45.055Z,0
2017-02-14T05:59:56.485Z,0
2017-02-14T06:01:07.909Z,0
2017-02-14T06:02:19.344Z,0
2017-02-14T06:03:30.757Z,0
2017-02-14T06:04:42.203Z,0
2017-02-14T06:05:53.623Z,0
2017-02-14T06:07:05.050Z,0
2017-02-14T06:08:16.468Z,0
2017-02-14T06:09:27.953Z,0
2017-02-14T06:10:39.376Z,0
2017-02-14T06:11:50.801Z,0
2017-02-14T06:13:02.240Z,0
2017-02-14T06:14:13.894Z,0
2017-02-14T06:15:25.323Z,0
2017-02-14T06:16:36.959Z,0
2017-02-14T06:17:48.447Z,0
2017-02-14T06:18:59.873Z,0
2017-02-14T06:20:11.364Z,0
2017-02-14T06:21:22.797Z,0
2017-02-14T06:22:34.222Z,0
2017-02-14T06:23:45.677Z,0
2017-02-14T06:24:57.115Z,0
2017-02-14T06:26:08.962Z,0
2017-02-14T06:27:20.398Z,0
2017-02-14T06:28:31.872Z,0
2017-02-14T06:29:43.310Z,0
2017-02-14T06:30:54.800Z,0
2017-02-14T06:32:06.236Z,5
2017-02-14T06:33:17.888Z,5
2017-02-14T06:34:29.313Z,5
2017-02-14T06:35:40.952Z,5
2017-02-14T06:36:52.408Z,5
2017-02-14T06:38:03.853Z,5
2017-02-14T06:39:15.281Z,10
2017-02-14T06:40:26.724Z,10
2017-02-14T06:41:38.202Z,10
2017-02-14T06:42:49.654Z,10
2017-02-14T06:44:01.087Z,15
2017-02-14T06:45:12.526Z,15
2017-02-14T06:46:24.183Z,15
2017-02-14T06:47:35.823Z,20
2017-02-14T06:48:47.267Z,20
2017-02-14T06:49:58.925Z,20
2017-02-14T06:51:10.360Z,25
2017-02-14T06:52:21.785Z,25
2017-02-14T06:53:33.223Z,30
2017-02-14T06:54:44.634Z,30
2017-02-14T06:55:56.090Z,35
2017-02-14T06:57:07.515Z,35
2017-02-14T06:58:19.021Z,40
2017-02-14T06:59:30.453Z,40
2017-02-14T07:00:41.873Z,45
2017-02-14T07:01:53.319Z,50
2017-02-14T07:03:04.770Z,50
2017-02-14T07:04:16.186Z,55
2017-02-14T07:05:27.622Z,60
2017-02-14T07:06:39.046Z,60
2017-02-14T07:07:50.474Z,65
2017-02-14T07:09:01.953Z,65
2017-02-14T07:10:13.389Z,65
2017-02-14T07:11:24.829Z,75
2017-02-14T07:12:36.254Z,85
2017-02-14T07:13:47.691Z,90
2017-02-14T07:14:59.139Z,105
2017-02-14T07:16:10.567Z,115
2017-02-14T07:17:21.999Z,110
2017-02-14T07:18:33.423Z,160
2017-02-14T07:19:45.112Z,170
2017-02-14T07:20:56.764Z,125
2017-02-14T07:22:08.420Z,105
2017-02-14T07:23:19.865Z,110
2017-02-14T07:24:31.303Z,125
2017-02-14T07:25:42.929Z,125
2017-02-14T07:26:54.386Z,120
2017-02-14T07:28:05.829Z,145
2017-02-14T07:29:17.281Z,210
2017-02-14T07:30:28.768Z,230
2017-02-14T07:31:40.609Z,270
2017-02-14T07:32:52.269Z,275
2017-02-14T07:34:03.706Z,330
2017-02-14T07:35:15.134Z,440
2017-02-14T07:36:26.626Z,530
2017-02-14T07:37:38.259Z,605
2017-02-14T07:38:49.700Z,590
2017-02-14T07:40:01.131Z,570
2017-02-14T07:41:12.609Z,485
2017-02-14T07:42:24.072Z,380
2017-02-14T07:43:35.500Z,385
2017-02-14T07:44:46.935Z,455
2017-02-14T07:45:58.385Z,415
2017-02-14T07:47:09.826Z,400
2017-02-14T07:48:21.258Z,430
2017-02-14T07:49:32.705Z,580
2017-02-14T07:50:44.545Z,710
2017-02-14T07:51:56.018Z,595
2017-02-14T07:53:07.455Z,485
2017-02-14T07:54:18.884Z,500
2017-02-14T07:55:30.524Z,585
2017-02-14T07:56:41.977Z,790
2017-02-14T07:57:53.433Z,1060
2017-02-14T07:59:04.888Z,1170
2017-02-14T08:00:16.336Z,1300
2017-02-14T08:01:27.780Z,1345
2017-02-14T08:02:39.270Z,1180
2017-02-14T08:03:50.739Z,1000
2017-02-14T08:05:02.206Z,1030
2017-02-14T08:06:13.648Z,1205
2017-02-14T08:07:25.112Z,645
2017-02-14T08:08:36.556Z,750
2017-02-14T08:09:48.190Z,1130
2017-02-14T08:11:00.026Z,1295
2017-02-14T08:12:11.470Z,865
2017-02-14T08:13:23.112Z,930
2017-02-14T08:14:34.563Z,1180
2017-02-14T08:15:46.015Z,1100
2017-02-14T08:16:57.485Z,1390
2017-02-14T08:18:09.000Z,1075
2017-02-14T08:19:20.442Z,765
2017-02-14T08:20:31.902Z,1015
2017-02-14T08:21:43.550Z,1410
2017-02-14T08:22:55.186Z,1485
2017-02-14T08:24:06.661Z,1285
2017-02-14T08:25:18.118Z,1235
2017-02-14T08:26:29.563Z,970
2017-02-14T08:27:40.995Z,760
2017-02-14T08:28:52.518Z,740
2017-02-14T08:30:03.988Z,935
2017-02-14T08:31:15.412Z,1360
2017-02-14T08:32:26.846Z,1550
2017-02-14T08:33:38.276Z,1540
2017-02-14T08:34:49.750Z,1790
2017-02-14T08:36:01.219Z,1965
2017-02-14T08:37:12.667Z,1990
2017-02-14T08:38:24.128Z,1955
2017-02-14T08:39:35.623Z,1945
2017-02-14T08:40:47.097Z,1720
2017-02-14T08:41:58.535Z,1765
2017-02-14T08:43:10.003Z,1990
2017-02-14T08:44:21.469Z,1800
2017-02-14T08:45:32.924Z,1530
2017-02-14T08:46:44.581Z,1695
2017-02-14T08:47:56.048Z,1710
2017-02-14T08:49:07.532Z,1580
2017-02-14T08:50:19.037Z,1630
2017-02-14T08:51:30.488Z,1600
2017-02-14T08:52:41.930Z,1355
2017-02-14T08:53:53.380Z,1685
2017-02-14T08:55:05.028Z,1735
2017-02-14T08:56:16.521Z,1875
2017-02-14T08:57:27.988Z,2075
2017-02-14T08:58:40.049Z,1790
2017-02-14T08:59:51.495Z,1620
2017-02-14T09:01:02.966Z,1600
2017-02-14T09:02:14.435Z,1675
2017-02-14T09:03:26.093Z,1625
2017-02-14T09:04:37.534Z,1455
2017-02-14T09:05:48.998Z,1300
2017-02-14T09:07:00.487Z,1120
2017-02-14T09:08:11.942Z,875
2017-02-14T09:09:23.410Z,650
2017-02-14T09:10:34.881Z,1165
2017-02-14T09:11:46.375Z,1405
2017-02-14T09:12:57.824Z,1575
2017-02-14T09:14:09.285Z,1675
2017-02-14T09:15:20.744Z,1470
2017-02-14T09:16:32.187Z,1235
2017-02-14T09:17:43.676Z,1280
2017-02-14T09:18:55.192Z,1345
2017-02-14T09:20:06.639Z,1230
2017-02-14T09:21:18.090Z,1145
2017-02-14T09:22:29.532Z,1285
2017-02-14T09:23:41.018Z,1090
2017-02-14T09:24:52.674Z,1040
2017-02-14T09:26:04.129Z,1080
2017-02-14T09:27:15.786Z,1065
2017-02-14T09:28:27.228Z,1205
2017-02-14T09:29:38.940Z,1345
2017-02-14T09:30:50.598Z,1875
2017-02-14T09:32:02.063Z,2275
2017-02-14T09:33:13.716Z,2365
2017-02-14T09:34:25.363Z,2340
2017-02-14T09:35:37.025Z,2370
2017-02-14T09:36:48.467Z,2420
2017-02-14T09:37:59.922Z,2340
2017-02-14T09:39:11.405Z,2390
2017-02-14T09:40:22.915Z,2405
2017-02-14T09:41:34.372Z,2450
2017-02-14T09:42:45.834Z,2370
2017-02-14T09:43:57.307Z,2255
2017-02-14T09:45:08.770Z,2260
2017-02-14T09:46:20.289Z,2370
2017-02-14T09:47:31.757Z,2470
2017-02-14T09:48:43.221Z,2485
2017-02-14T09:49:54.688Z,2395
2017-02-14T09:51:06.199Z,2350
2017-02-14T09:52:17.681Z,2390
2017-02-14T09:53:29.139Z,2325
2017-02-14T09:54:40.611Z,2385
2017-02-14T09:55:52.063Z,2430
2017-02-14T09:57:03.513Z,2495
2017-02-14T09:58:14.972Z,2450
2017-02-14T09:59:26.617Z,2390
2017-02-14T10:00:38.278Z,2380
2017-02-14T10:01:49.807Z,2385
2017-02-14T10:03:01.480Z,2380
2017-02-14T10:04:12.937Z,2335
2017-02-14T10:05:24.385Z,2390
2017-02-14T10:06:35.872Z,2335
2017-02-14T10:07:47.343Z,2355
2017-02-14T10:08:58.816Z,2440
2017-02-14T10:10:10.277Z,2340
2017-02-14T10:11:21.729Z,2335
2017-02-14T10:12:33.258Z,2360
2017-02-14T10:13:44.712Z,2405
2017-02-14T10:14:56.374Z,2370
2017-02-14T10:16:07.827Z,2290
2017-02-14T10:17:19.294Z,2360
2017-02-14T10:18:30.757Z,2405
2017-02-14T10:19:42.238Z,2345
2017-02-14T10:20:53.696Z,2400
2017-02-14T10:22:05.169Z,2375
2017-02-14T10:23:16.687Z,2265
2017-02-14T10:24:28.134Z,2225
2017-02-14T10:25:39.593Z,2265
2017-02-14T10:26:51.048Z,2285
2017-02-14T10:28:02.504Z,2280
2017-02-14T10:29:13.976Z,2325
2017-02-14T10:30:25.456Z,2330
2017-02-14T10:31:36.912Z,2310
2017-02-14T10:32:48.379Z,2240
2017-02-14T10:34:00.083Z,2250
2017-02-14T10:35:11.553Z,2275
2017-02-14T10:36:23.056Z,2115
2017-02-14T10:37:34.716Z,2150
2017-02-14T10:38:46.375Z,2140
2017-02-14T10:39:57.838Z,2230
2017-02-14T10:41:09.302Z,2235
2017-02-14T10:42:20.749Z,2220
2017-02-14T10:43:32.238Z,2200
2017-02-14T10:44:43.697Z,2210
2017-02-14T10:45:55.171Z,2195
2017-02-14T10:47:06.642Z,2205
2017-02-14T10:48:18.087Z,2185
2017-02-14T10:49:29.600Z,2160
2017-02-14T10:50:41.290Z,2150
2017-02-14T10:51:52.757Z,2190
2017-02-14T10:53:04.251Z,2160
2017-02-14T10:54:15.711Z,2145
2017-02-14T10:55:27.153Z,2145
2017-02-14T10:56:38.620Z,2115
2017-02-14T10:57:50.082Z,2000
2017-02-14T10:59:01.547Z,2065
2017-02-14T11:00:13.070Z,2035
2017-02-14T11:01:24.547Z,2050
2017-02-14T11:02:36.012Z,1985
2017-02-14T11:03:47.463Z,1915
2017-02-14T11:04:58.935Z,1885
2017-02-14T11:06:10.401Z,1905
2017-02-14T11:07:21.885Z,1970
2017-02-14T11:08:33.361Z,1965
2017-02-14T11:09:44.807Z,1940
2017-02-14T11:10:56.325Z,1960
2017-02-14T11:12:07.778Z,1980
2017-02-14T11:13:19.447Z,1980
2017-02-14T11:14:30.914Z,1985
2017-02-14T11:15:42.371Z,1900
2017-02-14T11:16:53.855Z,1910
2017-02-14T11:18:05.321Z,1945
2017-02-14T11:19:16.982Z,1835
2017-02-14T11:20:28.452Z,1810
2017-02-14T11:21:40.001Z,1855
2017-02-14T11:22:51.693Z,1845
2017-02-14T11:24:03.167Z,1885
2017-02-14T11:25:14.637Z,1825
2017-02-14T11:26:26.092Z,1760
2017-02-14T11:27:37.551Z,1825
2017-02-14T11:28:49.028Z,1795
2017-02-14T11:30:00.514Z,1775
2017-02-14T11:31:11.966Z,1710
2017-02-14T11:32:23.433Z,1655
2017-02-14T11:33:34.897Z,1670
2017-02-14T11:34:46.558Z,1645
2017-02-14T11:35:58.028Z,1390
2017-02-14T11:37:09.514Z,1615
2017-02-14T11:38:20.981Z,1415
2017-02-14T11:39:32.463Z,1425
2017-02-14T11:40:43.929Z,1500
2017-02-14T11:41:55.606Z,1425
2017-02-14T11:43:07.115Z,1240
2017-02-14T11:44:18.601Z,1470
2017-02-14T11:45:30.049Z,1285
2017-02-14T11:46:41.522Z,1315
2017-02-14T11:47:52.981Z,1390
2017-02-14T11:49:04.660Z,1465
2017-02-14T11:50:16.115Z,1535
2017-02-14T11:51:27.593Z,1555
2017-02-14T11:52:39.052Z,1365
2017-02-14T11:53:50.556Z,1425
2017-02-14T11:55:02.012Z,1340
2017-02-14T11:56:13.461Z,1395
2017-02-14T11:57:24.912Z,1165
2017-02-14T11:58:36.377Z,1060
2017-02-14T11:59:47.828Z,1285
2017-02-14T12:00:59.275Z,1350
2017-02-14T12:02:10.740Z,1415
2017-02-14T12:03:22.201Z,1340
2017-02-14T12:04:33.717Z,1320
2017-02-14T12:05:45.179Z,1350
2017-02-14T12:06:56.626Z,1365
2017-02-14T12:08:08.081Z,1255
2017-02-14T12:09:19.565Z,1025
2017-02-14T12:10:31.219Z,1110
2017-02-14T12:11:42.684Z,1255
2017-02-14T12:12:54.167Z,1185
2017-02-14T12:14:05.618Z,1265
2017-02-14T12:15:17.161Z,1180
2017-02-14T12:16:28.623Z,1020
2017-02-14T12:17:40.483Z,945
2017-02-14T12:18:51.949Z,780
2017-02-14T12:20:03.411Z,765
2017-02-14T12:21:15.110Z,930
2017-02-14T12:22:26.561Z,905
2017-02-14T12:23:37.997Z,755
2017-02-14T12:24:49.648Z,775
2017-02-14T12:26:01.311Z,980
2017-02-14T12:27:12.987Z,990
2017-02-14T12:28:24.440Z,935
2017-02-14T12:29:35.900Z,1000
2017-02-14T12:30:47.363Z,955
2017-02-14T12:31:58.870Z,1020
2017-02-14T12:33:10.319Z,990
2017-02-14T12:34:21.771Z,950
2017-02-14T12:35:33.214Z,900
2017-02-14T12:36:44.653Z,530
2017-02-14T12:37:56.110Z,765
2017-02-14T12:39:07.567Z,895
2017-02-14T12:40:19.024Z,875
2017-02-14T12:41:30.869Z,935
2017-02-14T12:42:42.568Z,960
2017-02-14T12:43:54.016Z,950
2017-02-14T12:45:05.467Z,800
2017-02-14T12:46:17.103Z,690
2017-02-14T12:47:28.550Z,1045
2017-02-14T12:48:40.017Z,1070
2017-02-14T12:49:51.484Z,1095
2017-02-14T12:51:02.952Z,1100
2017-02-14T12:52:14.420Z,1020
2017-02-14T12:53:25.935Z,1010
2017-02-14T12:54:37.410Z,1090
2017-02-14T12:55:48.868Z,1055
2017-02-14T12:57:00.537Z,925
2017-02-14T12:58:12.003Z,845
2017-02-14T12:59:23.466Z,805
2017-02-14T13:00:35.134Z,755
2017-02-14T13:01:46.609Z,710
2017-02-14T13:02:58.064Z,680
2017-02-14T13:04:09.523Z,620
2017-02-14T13:05:21.177Z,610
2017-02-14T13:06:32.836Z,555
2017-02-14T13:07:44.269Z,510
2017-02-14T13:08:55.793Z,510
2017-02-14T13:10:07.249Z,515
2017-02-14T13:11:18.899Z,505
2017-02-14T13:12:30.356Z,500
2017-02-14T13:13:42.006Z,480
2017-02-14T13:14:53.482Z,405
2017-02-14T13:16:04.963Z,365
2017-02-14T13:17:16.440Z,425
2017-02-14T13:18:27.882Z,415
2017-02-14T13:19:39.596Z,410
2017-02-14T13:20:51.049Z,390
2017-02-14T13:22:02.521Z,375
2017-02-14T13:23:13.980Z,375
2017-02-14T13:24:25.431Z,365
2017-02-14T13:25:37.071Z,355
2017-02-14T13:26:48.523Z,345
2017-02-14T13:27:59.992Z,350
2017-02-14T13:29:11.437Z,360
2017-02-14T13:30:22.931Z,360
2017-02-14T13:31:34.435Z,370
2017-02-14T13:32:45.907Z,345
2017-02-14T13:33:57.373Z,325
2017-02-14T13:35:08.821Z,340
2017-02-14T13:36:20.280Z,355
2017-02-14T13:37:31.744Z,375
2017-02-14T13:38:43.391Z,380
2017-02-14T13:39:54.846Z,385
2017-02-14T13:41:06.340Z,405
2017-02-14T13:42:17.989Z,390
2017-02-14T13:43:29.449Z,425
2017-02-14T13:44:41.088Z,475
2017-02-14T13:45:52.745Z,500
2017-02-14T13:47:04.211Z,485
2017-02-14T13:48:15.880Z,460
2017-02-14T13:49:27.335Z,440
2017-02-14T13:50:38.800Z,405
2017-02-14T13:51:50.231Z,255
2017-02-14T13:53:01.886Z,235
2017-02-14T13:54:13.348Z,235
2017-02-14T13:55:25.164Z,250
2017-02-14T13:56:36.661Z,325
2017-02-14T13:57:48.159Z,360
2017-02-14T13:58:59.616Z,365
2017-02-14T14:00:11.076Z,360
2017-02-14T14:01:22.519Z,290
2017-02-14T14:02:33.972Z,270
2017-02-14T14:03:45.439Z,260
2017-02-14T14:04:56.909Z,265
2017-02-14T14:06:08.374Z,260
2017-02-14T14:07:19.816Z,265
2017-02-14T14:08:31.306Z,265
2017-02-14T14:09:42.731Z,265
2017-02-14T14:10:54.187Z,270
2017-02-14T14:12:05.619Z,260
2017-02-14T14:13:17.072Z,225
2017-02-14T14:14:28.502Z,210
2017-02-14T14:15:39.959Z,210
2017-02-14T14:16:51.406Z,235
2017-02-14T14:18:02.842Z,230
2017-02-14T14:19:14.349Z,230
2017-02-14T14:20:25.802Z,235
2017-02-14T14:21:37.439Z,235
2017-02-14T14:22:48.883Z,230
2017-02-14T14:24:00.366Z,235
2017-02-14T14:25:11.808Z,230
2017-02-14T14:26:23.452Z,230
2017-02-14T14:27:34.901Z,225
2017-02-14T14:28:46.557Z,220
2017-02-14T14:29:58.048Z,215
2017-02-14T14:31:09.500Z,215
2017-02-14T14:32:20.962Z,210
2017-02-14T14:33:32.427Z,210
2017-02-14T14:34:43.864Z,210
2017-02-14T14:35:55.303Z,205
2017-02-14T14:37:06.743Z,200
2017-02-14T14:38:18.189Z,200
2017-02-14T14:39:29.633Z,190
2017-02-14T14:40:41.331Z,190
2017-02-14T14:41:52.778Z,185
2017-02-14T14:43:04.217Z,185
2017-02-14T14:44:15.677Z,180
2017-02-14T14:45:27.104Z,180
2017-02-14T14:46:38.570Z,175
2017-02-14T14:47:50.029Z,175
2017-02-14T14:49:01.673Z,175
2017-02-14T14:50:13.135Z,170
2017-02-14T14:51:24.647Z,170
2017-02-14T14:52:36.106Z,170
2017-02-14T14:53:47.767Z,170
2017-02-14T14:54:59.247Z,165
2017-02-14T14:56:10.681Z,165
2017-02-14T14:57:22.177Z,165
2017-02-14T14:58:33.826Z,160
2017-02-14T14:59:45.262Z,160
2017-02-14T15:00:56.912Z,160
2017-02-14T15:02:08.416Z,155
2017-02-14T15:03:19.877Z,155
2017-02-14T15:04:31.345Z,155
2017-02-14T15:05:42.992Z,155
2017-02-14T15:06:54.452Z,150
2017-02-14T15:08:05.929Z,150
2017-02-14T15:09:17.370Z,150
2017-02-14T15:10:28.815Z,150
2017-02-14T15:11:40.457Z,145
2017-02-14T15:12:51.963Z,145
2017-02-14T15:14:03.405Z,145
2017-02-14T15:15:14.850Z,145
2017-02-14T15:16:26.314Z,145
2017-02-14T15:17:37.777Z,145
2017-02-14T15:18:49.222Z,140
2017-02-14T15:20:00.875Z,140
2017-02-14T15:21:12.343Z,140
2017-02-14T15:22:23.842Z,135
2017-02-14T15:23:35.778Z,135
2017-02-14T15:24:47.627Z,135
2017-02-14T15:25:59.077Z,135
2017-02-14T15:27:10.534Z,130
2017-02-14T15:28:21.978Z,130
2017-02-14T15:29:33.440Z,130
2017-02-14T15:30:45.108Z,125
2017-02-14T15:31:56.555Z,125
2017-02-14T15:33:08.061Z,120
2017-02-14T15:34:19.573Z,120
2017-02-14T15:35:31.243Z,125
2017-02-14T15:36:42.766Z,120
2017-02-14T15:37:54.223Z,115
2017-02-14T15:39:05.880Z,115
2017-02-14T15:40:17.325Z,110
2017-02-14T15:41:28.986Z,110
2017-02-14T15:42:40.456Z,105
2017-02-14T15:43:51.908Z,105
2017-02-14T15:45:03.395Z,100
2017-02-14T15:46:14.839Z,100
2017-02-14T15:47:26.297Z,100
2017-02-14T15:48:37.764Z,95
2017-02-14T15:49:49.212Z,95
2017-02-14T15:51:00.669Z,90
2017-02-14T15:52:12.117Z,90
2017-02-14T15:53:23.581Z,90
2017-02-14T15:54:35.041Z,90
2017-02-14T15:55:46.613Z,85
2017-02-14T15:56:58.056Z,85
2017-02-14T15:58:10.232Z,80
2017-02-14T15:59:22.067Z,80
2017-02-14T16:00:33.541Z,75
2017-02-14T16:01:45.001Z,75
2017-02-14T16:02:56.461Z,70
2017-02-14T16:04:07.956Z,70
2017-02-14T16:05:19.413Z,65
2017-02-14T16:06:31.082Z,65
2017-02-14T16:07:42.536Z,60
2017-02-14T16:08:54.001Z,60
2017-02-14T16:10:05.657Z,55
2017-02-14T16:11:17.127Z,60
2017-02-14T16:12:28.636Z,55
2017-02-14T16:13:40.115Z,55
2017-02-14T16:14:51.575Z,50
2017-02-14T16:16:03.227Z,50
2017-02-14T16:17:14.706Z,45
2017-02-14T16:18:26.154Z,40
2017-02-14T16:19:37.624Z,40
2017-02-14T16:20:49.081Z,35
2017-02-14T16:22:00.533Z,35
2017-02-14T16:23:12.227Z,35
2017-02-14T16:24:23.724Z,30
2017-02-14T16:25:35.387Z,30
2017-02-14T16:26:46.828Z,25
2017-02-14T16:27:58.285Z,25
2017-02-14T16:29:09.723Z,25
2017-02-14T16:30:21.169Z,20
2017-02-14T16:31:32.845Z,20
2017-02-14T16:32:44.286Z,20
2017-02-14T16:33:55.790Z,15
2017-02-14T16:35:07.243Z,15
2017-02-14T16:36:18.705Z,15
2017-02-14T16:37:30.345Z,10
2017-02-14T16:38:41.818Z,10
2017-02-14T16:39:53.268Z,10
2017-02-14T16:41:04.932Z,10
2017-02-14T16:42:16.389Z,10
2017-02-14T16:43:28.251Z,5
2017-02-14T16:44:39.950Z,5
2017-02-14T16:45:51.427Z,5